createdAt,value
2024-01-08T00:02:20.371Z,57.04
2024-01-08T00:04:46.903Z,57.73
2024-01-08T00:07:13.466Z,57.66
2024-01-08T00:09:39.948Z,57.79
2024-01-08T00:12:06.560Z,57.60
2024-01-08T00:14:33.315Z,58.12
2024-01-08T00:16:59.937Z,57.69
2024-01-08T00:19:26.604Z,57.05
2024-01-08T00:21:53.305Z,57.49
2024-01-08T00:24:20.012Z,57.95
2024-01-08T00:26:46.519Z,57.53
2024-01-08T00:29:13.052Z,58.31
2024-01-08T00:31:39.653Z,58.41
2024-01-08T00:34:06.524Z,58.24
2024-01-08T00:36:35.258Z,58.73
2024-01-08T00:39:01.830Z,58.45
2024-01-08T00:41:28.426Z,58.77
2024-01-08T00:43:55.027Z,57.98
2024-01-08T00:46:21.612Z,59.03
2024-01-08T00:48:48.429Z,58.71
2024-01-08T00:51:14.940Z,58.52
2024-01-08T00:53:41.624Z,58.64
2024-01-08T00:56:08.283Z,58.10
2024-01-08T00:58:35.318Z,57.92
2024-01-08T01:01:01.838Z,58.34
2024-01-08T01:03:28.561Z,59.00
2024-01-08T01:05:57.233Z,59.12
2024-01-08T01:08:23.925Z,59.02
2024-01-08T01:10:50.508Z,58.67
2024-01-08T01:13:17.078Z,59.24
2024-01-08T01:15:43.618Z,58.65
2024-01-08T01:18:10.267Z,59.06
2024-01-08T01:20:37.076Z,58.50
2024-01-08T01:23:03.825Z,58.61
2024-01-08T01:25:30.429Z,59.11
2024-01-08T01:27:56.956Z,58.81
2024-01-08T01:30:23.516Z,58.51
2024-01-08T01:32:50.190Z,59.06
2024-01-08T01:35:16.892Z,58.96
2024-01-08T01:37:43.436Z,58.87
2024-01-08T01:40:11.273Z,58.72
2024-01-08T01:42:37.795Z,58.54
2024-01-08T01:45:04.705Z,58.54
2024-01-08T01:47:31.605Z,58.85
2024-01-08T01:49:58.450Z,59.22
2024-01-08T01:52:26.454Z,59.19
2024-01-08T01:54:52.999Z,58.81
2024-01-08T01:57:19.898Z,58.58
2024-01-08T01:59:47.007Z,59.08
2024-01-08T02:02:15.450Z,58.55
2024-01-08T02:04:42.536Z,59.08
2024-01-08T02:07:09.370Z,59.01
2024-01-08T02:09:35.951Z,58.66
2024-01-08T02:12:03.137Z,58.37
2024-01-08T02:14:29.941Z,58.81
2024-01-08T02:16:56.613Z,59.22
2024-01-08T02:19:23.152Z,58.46
2024-01-08T02:21:50.596Z,59.18
2024-01-08T02:24:17.297Z,58.85
2024-01-08T02:26:43.834Z,59.50
2024-01-08T02:29:10.911Z,59.34
2024-01-08T02:31:37.498Z,59.39
2024-01-08T02:34:04.051Z,59.47
2024-01-08T02:36:30.579Z,59.05
2024-01-08T02:38:57.096Z,58.79
2024-01-08T02:41:23.986Z,58.78
2024-01-08T02:43:50.565Z,59.63
2024-01-08T02:46:17.344Z,58.82
2024-01-08T02:48:43.983Z,58.85
2024-01-08T02:51:10.636Z,59.23
2024-01-08T02:53:38.027Z,58.60
2024-01-08T02:56:04.831Z,58.79
2024-01-08T02:58:31.365Z,58.61
2024-01-08T03:01:00.596Z,58.56
2024-01-08T03:03:27.142Z,58.20
2024-01-08T03:05:55.170Z,59.02
2024-01-08T03:08:21.854Z,58.25
2024-01-08T03:10:48.440Z,59.26
2024-01-08T03:13:15.195Z,58.96
2024-01-08T03:15:42.280Z,58.03
2024-01-08T03:18:09.199Z,58.97
2024-01-08T03:20:35.751Z,59.22
2024-01-08T03:23:02.426Z,58.95
2024-01-08T03:25:28.964Z,58.72
2024-01-08T03:27:55.468Z,58.50
2024-01-08T03:30:22.014Z,58.86
2024-01-08T03:32:48.713Z,58.48
2024-01-08T03:35:18.601Z,58.64
2024-01-08T03:37:45.157Z,58.84
2024-01-08T03:40:11.851Z,59.55
2024-01-08T03:42:38.715Z,59.23
2024-01-08T03:45:05.489Z,59.33
2024-01-08T03:47:32.168Z,59.54
2024-01-08T03:49:58.925Z,59.06
2024-01-08T03:52:25.764Z,59.08
2024-01-08T03:54:52.290Z,58.96
2024-01-08T03:57:19.003Z,59.10
2024-01-08T03:59:46.780Z,59.33
2024-01-08T04:02:14.191Z,59.26
2024-01-08T04:04:42.153Z,59.45
2024-01-08T04:07:10.489Z,58.62
2024-01-08T04:09:37.016Z,59.14
2024-01-08T04:12:05.469Z,58.97
2024-01-08T04:14:34.767Z,59.05
2024-01-08T04:17:03.442Z,58.72
2024-01-08T04:19:29.957Z,58.95
2024-01-08T04:21:56.463Z,59.22
2024-01-08T04:24:23.153Z,58.14
2024-01-08T04:26:49.665Z,59.26
2024-01-08T04:29:16.278Z,58.86
2024-01-08T04:31:42.905Z,58.72
2024-01-08T04:34:10.376Z,58.75
2024-01-08T04:36:46.274Z,58.48
2024-01-08T04:39:13.229Z,58.30
2024-01-08T04:41:41.410Z,58.95
2024-01-08T04:44:08.891Z,58.57
2024-01-08T04:46:35.458Z,58.96
2024-01-08T04:49:06.046Z,58.43
2024-01-08T04:51:32.882Z,58.65
2024-01-08T04:53:59.432Z,58.70
2024-01-08T04:56:29.020Z,58.76
2024-01-08T04:58:56.003Z,58.68
2024-01-08T05:01:23.410Z,59.04
2024-01-08T05:03:50.367Z,59.03
2024-01-08T05:06:17.691Z,59.09
2024-01-08T05:08:44.286Z,59.26
2024-01-08T05:11:11.398Z,59.03
2024-01-08T05:13:39.757Z,59.56
2024-01-08T05:16:07.329Z,58.71
2024-01-08T05:18:34.111Z,58.84
2024-01-08T05:21:00.724Z,58.68
2024-01-08T05:23:27.448Z,59.14
2024-01-08T05:25:54.392Z,58.72
2024-01-08T05:28:26.225Z,58.83
2024-01-08T05:30:54.151Z,58.40
2024-01-08T05:33:21.680Z,58.29
2024-01-08T05:35:48.258Z,59.21
2024-01-08T05:38:14.767Z,58.73
2024-01-08T05:40:41.315Z,58.54
2024-01-08T05:43:07.905Z,58.46
2024-01-08T05:45:34.448Z,59.00
2024-01-08T05:48:01.265Z,59.35
2024-01-08T05:50:28.804Z,58.42
2024-01-08T05:52:55.586Z,58.95
2024-01-08T05:55:22.380Z,58.96
2024-01-08T05:57:48.906Z,58.74
2024-01-08T06:00:16.646Z,59.34
2024-01-08T06:02:43.318Z,59.41
2024-01-08T06:05:10.577Z,59.04
2024-01-08T06:07:37.943Z,59.41
2024-01-08T06:10:04.847Z,59.40
2024-01-08T06:12:31.628Z,59.96
2024-01-08T06:14:58.410Z,59.67
2024-01-08T06:17:25.052Z,59.02
2024-01-08T06:19:51.701Z,59.92
2024-01-08T06:22:18.321Z,59.10
2024-01-08T06:24:44.845Z,59.52
2024-01-08T06:27:11.480Z,59.96
2024-01-08T06:29:38.074Z,60.02
2024-01-08T06:32:05.212Z,59.16
2024-01-08T06:34:32.076Z,59.58
2024-01-08T06:36:59.143Z,59.33
2024-01-08T06:39:27.591Z,59.25
2024-01-08T06:41:54.185Z,59.32
2024-01-08T06:44:20.819Z,59.52
2024-01-08T06:46:47.508Z,59.84
2024-01-08T06:49:14.341Z,59.30
2024-01-08T06:51:44.330Z,59.79
2024-01-08T06:54:10.938Z,59.33
2024-01-08T06:56:37.962Z,60.05
2024-01-08T06:59:05.217Z,59.08
2024-01-08T07:01:32.528Z,59.63
2024-01-08T07:03:59.187Z,59.40
2024-01-08T07:06:26.166Z,60.16
2024-01-08T07:08:52.959Z,60.13
2024-01-08T07:11:24.150Z,59.64
2024-01-08T07:13:51.261Z,59.61
2024-01-08T07:16:18.773Z,59.13
2024-01-08T07:18:46.068Z,60.08
2024-01-08T07:21:18.059Z,60.32
2024-01-08T07:23:49.816Z,59.58
2024-01-08T07:26:16.626Z,59.90
2024-01-08T07:28:44.094Z,60.07
2024-01-08T07:31:12.235Z,59.67
2024-01-08T07:33:38.945Z,59.56
2024-01-08T07:36:05.923Z,59.82
2024-01-08T07:38:32.573Z,59.80
2024-01-08T07:41:00.441Z,59.60
2024-01-08T07:43:27.534Z,59.85
2024-01-08T07:45:54.145Z,59.96
2024-01-08T07:48:21.308Z,59.45
2024-01-08T07:50:48.291Z,60.13
2024-01-08T07:53:15.545Z,60.38
2024-01-08T07:55:42.138Z,59.90
2024-01-08T07:58:10.691Z,59.66
2024-01-08T08:00:37.250Z,59.15
2024-01-08T08:03:04.813Z,59.34
2024-01-08T08:05:32.098Z,59.63
2024-01-08T08:07:59.037Z,59.79
2024-01-08T08:10:25.587Z,60.19
2024-01-08T08:12:53.782Z,60.30
2024-01-08T08:15:21.479Z,60.09
2024-01-08T08:17:48.167Z,60.09
2024-01-08T08:20:14.908Z,58.93
2024-01-08T08:22:44.206Z,59.68
2024-01-08T08:25:11.615Z,59.97
2024-01-08T08:27:38.114Z,58.91
2024-01-08T08:30:05.054Z,58.67
2024-01-08T08:32:31.766Z,59.15
2024-01-08T08:34:58.373Z,59.20
2024-01-08T08:37:39.560Z,58.31
2024-01-08T08:40:13.756Z,58.28
2024-01-08T08:42:40.286Z,58.35
2024-01-08T08:45:07.897Z,58.24
2024-01-08T08:47:34.477Z,56.89
2024-01-08T08:50:01.151Z,57.65
2024-01-08T08:52:27.788Z,57.19
2024-01-08T08:54:54.321Z,56.63
2024-01-08T08:57:20.862Z,56.42
2024-01-08T08:59:48.521Z,55.82
2024-01-08T09:02:15.284Z,55.82
2024-01-08T09:04:42.090Z,56.59
2024-01-08T09:07:08.736Z,55.74
2024-01-08T09:09:35.317Z,55.92
2024-01-08T09:12:01.886Z,55.55
2024-01-08T09:14:28.734Z,55.21
2024-01-08T09:16:55.404Z,55.86
2024-01-08T09:19:21.963Z,56.29
2024-01-08T09:21:49.171Z,55.95
2024-01-08T09:24:15.843Z,55.50
2024-01-08T09:26:43.264Z,55.64
2024-01-08T09:29:10.223Z,55.84
2024-01-08T09:31:36.862Z,54.97
2024-01-08T09:34:04.946Z,55.54
2024-01-08T09:36:31.523Z,54.96
2024-01-08T09:38:58.020Z,54.98
2024-01-08T09:41:25.011Z,54.69
2024-01-08T09:43:53.217Z,54.52
2024-01-08T09:46:28.060Z,54.94
2024-01-08T09:48:55.509Z,54.93
2024-01-08T09:51:23.114Z,54.30
2024-01-08T09:53:49.990Z,54.69
2024-01-08T09:56:18.262Z,54.72
2024-01-08T09:58:45.074Z,54.46
2024-01-08T10:01:11.634Z,54.51
2024-01-08T10:03:38.209Z,54.53
2024-01-08T10:06:09.378Z,54.46
2024-01-08T10:08:36.429Z,54.22
2024-01-08T10:11:04.441Z,54.35
2024-01-08T10:13:31.062Z,53.87
2024-01-08T10:15:57.687Z,54.06
2024-01-08T10:18:25.043Z,53.43
2024-01-08T10:21:12.915Z,53.28
2024-01-08T10:23:39.831Z,53.60
2024-01-08T10:26:07.008Z,53.43
2024-01-08T10:28:37.487Z,53.56
2024-01-08T10:31:08.802Z,53.46
2024-01-08T10:33:35.443Z,53.65
2024-01-08T10:36:05.096Z,53.70
2024-01-08T10:38:35.731Z,53.45
2024-01-08T10:41:03.137Z,53.72
2024-01-08T10:43:30.784Z,53.54
2024-01-08T10:46:03.311Z,53.01
2024-01-08T10:48:43.076Z,52.70
2024-01-08T10:51:10.561Z,52.97
2024-01-08T10:53:51.242Z,52.98
2024-01-08T10:56:19.780Z,52.77
2024-01-08T10:58:56.743Z,51.89
2024-01-08T11:01:23.368Z,52.14
2024-01-08T11:03:50.237Z,52.34
2024-01-08T11:06:16.979Z,51.63
2024-01-08T11:08:43.757Z,52.06
2024-01-08T11:11:12.846Z,52.09
2024-01-08T11:13:40.242Z,51.98
2024-01-08T11:16:08.205Z,50.90
2024-01-08T11:18:34.876Z,51.36
2024-01-08T11:21:02.845Z,51.87
2024-01-08T11:23:39.128Z,51.28
2024-01-08T11:26:10.152Z,51.57
2024-01-08T11:28:38.598Z,51.28
2024-01-08T11:31:30.106Z,50.82
2024-01-08T11:34:08.634Z,51.49
2024-01-08T11:37:14.300Z,50.92
2024-01-08T11:39:42.116Z,51.30
2024-01-08T11:42:08.984Z,51.92
2024-01-08T11:44:35.946Z,51.29
2024-01-08T11:47:02.521Z,51.85
2024-01-08T11:49:29.147Z,51.73
2024-01-08T11:52:01.164Z,51.83
2024-01-08T11:54:27.831Z,51.38
2024-01-08T11:56:54.595Z,50.82
2024-01-08T11:59:34.091Z,51.16
2024-01-08T12:02:21.032Z,50.75
2024-01-08T12:04:58.494Z,50.39
2024-01-08T12:07:26.594Z,50.73
2024-01-08T12:09:53.805Z,50.61
2024-01-08T12:12:21.104Z,50.50
2024-01-08T12:14:48.342Z,50.45
2024-01-08T12:17:19.460Z,50.88
2024-01-08T12:19:51.067Z,51.08
2024-01-08T12:22:20.665Z,50.47
2024-01-08T12:24:49.472Z,50.69
2024-01-08T12:27:17.261Z,50.23
2024-01-08T12:29:45.073Z,50.46
2024-01-08T12:32:14.578Z,50.03
2024-01-08T12:34:41.352Z,50.18
2024-01-08T12:37:08.649Z,50.07
2024-01-08T12:39:35.863Z,50.56
2024-01-08T12:42:08.701Z,50.75
2024-01-08T12:44:35.481Z,49.68
2024-01-08T12:47:03.343Z,50.18
2024-01-08T12:49:30.109Z,50.00
2024-01-08T12:52:01.649Z,50.23
2024-01-08T12:54:29.099Z,50.54
2024-01-08T12:56:55.606Z,49.74
2024-01-08T12:59:27.338Z,49.79
2024-01-08T13:01:54.293Z,50.15
2024-01-08T13:04:22.348Z,49.98
2024-01-08T13:06:50.231Z,50.23
2024-01-08T13:09:16.981Z,50.02
2024-01-08T13:11:43.794Z,50.01
2024-01-08T13:14:15.155Z,50.09
2024-01-08T13:16:42.904Z,50.27
2024-01-08T13:19:09.912Z,50.18
2024-01-08T13:21:41.339Z,50.06
2024-01-08T13:24:11.465Z,49.89
2024-01-08T13:26:38.922Z,50.10
2024-01-08T13:29:07.840Z,50.53
2024-01-08T13:31:36.269Z,49.73
2024-01-08T13:34:07.781Z,50.45
2024-01-08T13:36:35.635Z,50.01
2024-01-08T13:39:02.273Z,50.59
2024-01-08T13:41:29.469Z,50.00
2024-01-08T13:43:56.032Z,50.37
2024-01-08T13:46:22.538Z,50.55
2024-01-08T13:48:49.239Z,50.28
2024-01-08T13:51:15.825Z,49.81
2024-01-08T13:53:42.611Z,49.95
2024-01-08T13:56:09.669Z,50.70
2024-01-08T13:58:36.233Z,50.37
2024-01-08T14:01:03.015Z,50.95
2024-01-08T14:03:29.683Z,50.97
2024-01-08T14:05:56.328Z,51.13
2024-01-08T14:08:23.016Z,50.69
2024-01-08T14:10:49.554Z,51.11
2024-01-08T14:13:16.052Z,50.97
2024-01-08T14:15:42.670Z,50.86
2024-01-08T14:18:09.478Z,51.13
2024-01-08T14:20:36.072Z,50.91
2024-01-08T14:23:02.817Z,50.58
2024-01-08T14:25:29.360Z,50.44
2024-01-08T14:27:57.351Z,51.25
2024-01-08T14:30:23.976Z,50.92
2024-01-08T14:32:50.826Z,50.82
2024-01-08T14:35:17.438Z,50.90
2024-01-08T14:37:44.199Z,51.60
2024-01-08T14:40:12.265Z,51.39
2024-01-08T14:42:38.841Z,51.07
2024-01-08T14:45:07.853Z,51.17
2024-01-08T14:47:34.988Z,51.45
2024-01-08T14:50:02.550Z,51.39
2024-01-08T14:52:29.202Z,51.95
2024-01-08T14:54:55.705Z,51.50
2024-01-08T14:57:22.530Z,51.83
2024-01-08T14:59:49.104Z,52.14
2024-01-08T15:02:15.679Z,51.60
2024-01-08T15:04:42.690Z,52.13
2024-01-08T15:07:10.025Z,52.63
2024-01-08T15:09:36.657Z,51.86
2024-01-08T15:12:03.447Z,52.93
2024-01-08T15:14:30.167Z,52.12
2024-01-08T15:16:56.799Z,52.57
2024-01-08T15:19:23.358Z,52.75
2024-01-08T15:21:52.868Z,52.81
2024-01-08T15:24:19.476Z,52.81
2024-01-08T15:26:46.035Z,52.67
2024-01-08T15:29:13.129Z,52.98
2024-01-08T15:31:39.854Z,52.95
2024-01-08T15:34:06.590Z,53.29
2024-01-08T15:36:33.219Z,53.54
2024-01-08T15:38:59.804Z,53.21
2024-01-08T15:41:26.340Z,53.36
2024-01-08T15:43:53.770Z,53.60
2024-01-08T15:46:20.989Z,53.54
2024-01-08T15:48:47.706Z,53.81
2024-01-08T15:51:14.763Z,53.78
2024-01-08T15:53:41.356Z,53.40
2024-01-08T15:56:07.883Z,53.33
2024-01-08T15:58:34.488Z,53.77
2024-01-08T16:01:01.034Z,53.68
2024-01-08T16:03:27.631Z,53.64
2024-01-08T16:05:54.358Z,54.06
2024-01-08T16:08:21.650Z,54.15
2024-01-08T16:10:48.176Z,53.83
2024-01-08T16:13:14.796Z,54.36
2024-01-08T16:15:41.932Z,54.20
2024-01-08T16:18:08.583Z,53.99
2024-01-08T16:20:35.363Z,54.52
2024-01-08T16:23:01.998Z,54.02
2024-01-08T16:25:28.564Z,54.48
2024-01-08T16:27:55.101Z,54.18
2024-01-08T16:30:21.719Z,54.67
2024-01-08T16:32:48.542Z,54.24
2024-01-08T16:35:15.721Z,54.64
2024-01-08T16:37:43.418Z,54.05
2024-01-08T16:40:10.818Z,54.29
2024-01-08T16:42:37.331Z,54.21
2024-01-08T16:45:04.077Z,55.17
2024-01-08T16:49:57.907Z,55.35
2024-01-08T16:52:24.954Z,54.40
2024-01-08T16:54:51.482Z,55.34
2024-01-08T16:57:18.377Z,55.17
2024-01-08T16:59:46.554Z,54.64
2024-01-08T17:02:13.323Z,54.91
2024-01-08T17:04:39.877Z,55.31
2024-01-08T17:07:06.425Z,55.03
2024-01-08T17:09:32.909Z,55.11
2024-01-08T17:11:59.470Z,55.39
2024-01-08T17:14:26.065Z,55.88
2024-01-08T17:16:52.720Z,54.79
2024-01-08T17:19:19.630Z,55.87
2024-01-08T17:21:46.915Z,55.11
2024-01-08T17:24:13.503Z,55.57
2024-01-08T17:26:40.928Z,55.18
2024-01-08T17:29:07.909Z,55.80
2024-01-08T17:31:34.864Z,55.13
2024-01-08T17:34:01.592Z,55.89
2024-01-08T17:36:28.300Z,55.10
2024-01-08T17:38:54.911Z,56.38
2024-01-08T17:41:23.340Z,55.41
2024-01-08T17:43:50.608Z,56.49
2024-01-08T17:46:17.246Z,56.31
2024-01-08T17:48:43.940Z,56.79
2024-01-08T17:51:10.529Z,55.58
2024-01-08T17:53:37.060Z,56.09
2024-01-08T17:56:03.766Z,56.35
2024-01-08T17:58:32.220Z,55.69
2024-01-08T18:00:58.807Z,56.45
2024-01-08T18:03:25.340Z,55.43
2024-01-08T18:05:52.069Z,56.69
2024-01-08T18:08:18.631Z,56.31
2024-01-08T18:10:45.138Z,55.83
2024-01-08T18:13:11.687Z,56.27
2024-01-08T18:15:38.685Z,56.88
2024-01-08T18:18:05.941Z,55.56
2024-01-08T18:20:32.561Z,55.79
2024-01-08T18:22:59.127Z,56.02
2024-01-08T18:25:25.675Z,56.62
2024-01-08T18:27:52.210Z,57.10
2024-01-08T18:30:19.894Z,56.44
2024-01-08T18:32:46.676Z,55.69
2024-01-08T18:35:13.369Z,56.98
2024-01-08T18:37:39.989Z,57.22
2024-01-08T18:40:07.401Z,57.41
2024-01-08T18:42:33.890Z,55.92
2024-01-08T18:45:00.838Z,56.79
2024-01-08T18:47:35.126Z,56.58
2024-01-08T18:50:01.985Z,56.59
2024-01-08T18:52:28.659Z,56.41
2024-01-08T18:54:56.745Z,56.28
2024-01-08T18:57:23.422Z,56.63
2024-01-08T18:59:50.693Z,56.01
2024-01-08T19:02:17.547Z,55.97
2024-01-08T19:04:44.121Z,56.97
2024-01-08T19:07:11.764Z,57.09
2024-01-08T19:12:29.417Z,56.28
2024-01-08T19:15:00.158Z,56.63
2024-01-08T19:17:31.118Z,57.25
2024-01-08T19:19:57.709Z,56.48
2024-01-08T19:22:24.252Z,57.32
2024-01-08T19:24:50.818Z,57.76
2024-01-08T19:27:17.346Z,56.67
2024-01-08T19:29:46.573Z,57.40
2024-01-08T19:32:16.795Z,57.18
2024-01-08T19:34:43.558Z,57.67
2024-01-08T19:37:13.276Z,58.00
2024-01-08T19:39:40.681Z,57.65
2024-01-08T19:42:07.511Z,56.74
2024-01-08T19:44:34.476Z,57.37
2024-01-08T19:47:01.168Z,58.32
2024-01-08T19:49:31.660Z,57.97
2024-01-08T19:51:59.187Z,58.57
2024-01-08T19:54:26.331Z,57.96
2024-01-08T19:56:53.910Z,58.68
2024-01-08T19:59:20.771Z,58.29
2024-01-08T20:01:47.674Z,57.25
2024-01-08T20:04:14.189Z,57.50
2024-01-08T20:06:40.820Z,58.18
2024-01-08T20:09:09.518Z,58.79
2024-01-08T20:11:36.218Z,57.52
2024-01-08T20:14:02.890Z,58.76
2024-01-08T20:16:29.460Z,58.02
2024-01-08T20:18:56.501Z,57.99
2024-01-08T20:21:24.349Z,58.88
2024-01-08T20:23:52.204Z,58.08
2024-01-08T20:26:18.858Z,58.96
2024-01-08T20:28:45.441Z,59.37
2024-01-08T20:31:12.025Z,58.96
2024-01-08T20:33:42.376Z,59.49
2024-01-08T20:36:09.039Z,59.03
2024-01-08T20:38:35.779Z,59.24
2024-01-08T20:41:02.364Z,59.31
2024-01-08T20:43:29.022Z,58.73
2024-01-08T20:45:55.633Z,58.31
2024-01-08T20:48:22.238Z,58.46
2024-01-08T20:50:48.919Z,59.64
2024-01-08T20:53:16.148Z,58.66
2024-01-08T20:55:42.664Z,59.52
2024-01-08T20:58:09.175Z,58.99
2024-01-08T21:00:35.949Z,58.85
2024-01-08T21:03:02.565Z,59.72
2024-01-08T21:05:29.833Z,58.61
2024-01-08T21:07:58.130Z,59.69
2024-01-08T21:10:24.823Z,58.57
2024-01-08T21:12:52.420Z,59.67
2024-01-08T21:15:18.955Z,59.28
2024-01-08T21:17:45.582Z,60.33
2024-01-08T21:20:12.472Z,59.47
2024-01-08T21:22:39.147Z,59.88
2024-01-08T21:25:06.089Z,59.77
2024-01-08T21:27:32.662Z,59.56
2024-01-08T21:29:59.295Z,58.94
2024-01-08T21:32:25.943Z,59.32
2024-01-08T21:34:52.552Z,60.49
2024-01-08T21:37:19.045Z,59.55
2024-01-08T21:39:45.989Z,59.44
2024-01-08T21:42:12.880Z,59.43
2024-01-08T21:44:39.521Z,59.38
2024-01-08T21:47:06.214Z,59.73
2024-01-08T21:49:32.767Z,60.16
2024-01-08T21:51:59.325Z,60.67
2024-01-08T21:54:25.911Z,59.70
2024-01-08T21:56:52.511Z,60.18
2024-01-08T21:59:19.031Z,59.89
2024-01-08T22:01:45.543Z,60.47
2024-01-08T22:04:12.590Z,60.61
2024-01-08T22:06:39.264Z,60.27
2024-01-08T22:09:05.788Z,60.32
2024-01-08T22:11:32.365Z,60.68
2024-01-08T22:13:59.545Z,60.51
2024-01-08T22:16:26.170Z,61.39
2024-01-08T22:18:52.745Z,61.44
2024-01-08T22:21:19.380Z,60.52
2024-01-08T22:23:46.054Z,60.42
2024-01-08T22:26:12.675Z,60.91
2024-01-08T22:28:39.216Z,61.34
2024-01-08T22:31:06.165Z,60.87
2024-01-08T22:33:32.930Z,60.63
2024-01-08T22:35:59.560Z,60.92
2024-01-08T22:38:27.012Z,61.07
2024-01-08T22:40:53.561Z,60.95
2024-01-08T22:43:20.048Z,61.54
2024-01-08T22:45:46.969Z,61.42
2024-01-08T22:48:13.730Z,61.36
2024-01-08T22:50:40.542Z,61.12
2024-01-08T22:53:07.144Z,61.14
2024-01-08T22:55:33.671Z,60.78
2024-01-08T22:58:00.224Z,61.46
2024-01-08T23:00:26.741Z,61.41
2024-01-08T23:02:53.414Z,61.14
2024-01-08T23:05:20.194Z,61.72
2024-01-08T23:07:46.761Z,61.53
2024-01-08T23:10:13.325Z,61.21
2024-01-08T23:12:39.862Z,61.55
2024-01-08T23:15:06.926Z,61.63
2024-01-08T23:17:33.530Z,61.70
2024-01-08T23:20:00.198Z,61.89
2024-01-08T23:22:27.637Z,61.85
2024-01-08T23:24:54.156Z,61.92
2024-01-08T23:27:20.791Z,62.21
2024-01-08T23:29:48.721Z,61.87
2024-01-08T23:32:15.371Z,61.83
2024-01-08T23:34:41.921Z,61.94
2024-01-08T23:37:08.525Z,61.93
2024-01-08T23:39:37.729Z,61.78
2024-01-08T23:42:04.807Z,61.89
2024-01-08T23:44:31.362Z,62.05
2024-01-08T23:46:58.096Z,61.60
2024-01-08T23:49:24.798Z,62.21
2024-01-08T23:51:51.369Z,61.60
2024-01-08T23:54:17.876Z,62.05
2024-01-08T23:56:44.477Z,61.88
2024-01-08T23:59:11.178Z,62.00
